Brandenburg, KY

8:59 PM EST on December 03, 2016 (GMT -0500)
Old Weldon | | Change Station

Elev 636 ft 37.97 °N, 86.13 °W | Updated 1 minute ago

Clear
Clear
39.6 °F
Feels Like 40 °F
N
0.0
Wind Variable Wind from NNE
Gusts 0.0 mph

Today
High -- | Low -- °F
--% Chance of Precip.
Yesterday
High -- | Low -- °F
Precip. -- in
Pressure 30.31 in
Visibility 10.0 miles
Clouds Clear
Windchill 40 °F
Dew Point 33 °F
Humidity 77%
Rainfall 0.00 in
Snow Depth Not available.
7:44 AM 5:25 PM
Waxing Crescent, 18% visible
METAR KFTK 040158Z AUTO 07005KT 10SM CLR 04/M02 A3028 RMK AO2 SLP262 T00431018
Pressure 30.31 in
Visibility 10.0 miles
Clouds Clear
Windchill 40 °F
Dew Point 33 °F
Humidity 77%
Rainfall 0.00 in
Snow Depth Not available.
7:44 AM 5:25 PM
Waxing Crescent, 18% visible
METAR KFTK 040158Z AUTO 07005KT 10SM CLR 04/M02 A3028 RMK AO2 SLP262 T00431018

10-Day Weather Forecast

Almanac

Astronomy

Dec. 03, 2016 Rise Set
Actual Time
Civil Twilight
Nautical Twilight
Astronomical Twilight
Moon
Length of Visible Light
Length of Day
Tomorrow will be .
, % of the Moon is Illuminated

Today's Extremes

State Highs State Lows

Community

WunderPhotos

Upload Photos

1,955,560 photos uploaded!

WunderBlog® & News

Nearby

Air Quality

  Air Quality AQ Index Pollutant
Not available.

Snow Depth

Station Depth Elevation

Earthquake Activity

City Distance Mag. Time & Date
Minimum magnitude displayed is 2.5.

Coastal Water Temperatures

Place Temperature

Stations

Nearby Weather Stations

Station Location Temp. Windchill Dew Point Humidity Wind Precip. Elev Updated Type
                   

Watches & Warnings

There are currently no watches in effect.